createdAt,value
2023-03-23T15:58:54.226Z,15.60
2023-03-23T16:01:26.255Z,15.50
2023-03-23T16:04:16.665Z,15.40
2023-03-23T16:06:44.812Z,15.30
2023-03-23T16:09:20.636Z,15.20
2023-03-23T16:11:47.908Z,15.20
2023-03-23T16:14:15.266Z,15.20
2023-03-23T16:16:51.275Z,15.20
2023-03-23T16:19:20.536Z,15.10
2023-03-23T16:21:47.577Z,15.00
2023-03-23T16:24:14.478Z,14.90
2023-03-23T16:26:41.424Z,14.70
2023-03-23T16:29:33.893Z,14.50
2023-03-23T16:32:04.633Z,14.50
2023-03-23T16:34:33.602Z,14.60
2023-03-23T16:37:00.625Z,14.60
2023-03-23T16:39:28.168Z,14.60
2023-03-23T16:41:55.389Z,14.60
2023-03-23T16:44:22.341Z,14.50
2023-03-23T16:46:49.212Z,14.40
2023-03-23T16:49:16.195Z,14.40
2023-03-23T16:51:43.145Z,14.30
2023-03-23T16:54:10.934Z,14.30
2023-03-23T16:56:38.378Z,14.20
2023-03-23T16:59:05.576Z,14.20
2023-03-23T17:01:32.608Z,14.10
2023-03-23T17:03:59.529Z,13.90
2023-03-23T17:06:26.470Z,13.70
2023-03-23T17:08:53.439Z,13.50
2023-03-23T17:11:20.367Z,13.30
2023-03-23T17:13:49.087Z,13.10
2023-03-23T17:16:16.124Z,12.90
2023-03-23T17:18:43.024Z,12.70
2023-03-23T17:21:10.092Z,12.60
2023-03-23T17:23:36.968Z,12.50
2023-03-23T17:26:04.224Z,12.50
2023-03-23T17:28:31.216Z,12.40
2023-03-23T17:30:58.246Z,12.30
2023-03-23T17:33:25.179Z,12.30
2023-03-23T17:35:52.293Z,12.20
2023-03-23T17:38:19.553Z,12.20
2023-03-23T17:40:46.557Z,12.20
2023-03-23T17:43:13.445Z,12.20
2023-03-23T17:45:42.127Z,12.20
2023-03-23T17:48:10.140Z,12.20
2023-03-23T17:50:37.092Z,12.10
2023-03-23T17:53:04.412Z,12.10
2023-03-23T17:55:31.845Z,12.10
2023-03-23T17:57:59.081Z,12.10
2023-03-23T18:00:26.151Z,12.10
2023-03-23T18:02:53.141Z,12.10
2023-03-23T18:05:20.111Z,12.20
2023-03-23T18:07:46.993Z,12.20
2023-03-23T18:10:14.360Z,12.30
2023-03-23T18:12:42.038Z,12.30
2023-03-23T18:15:10.927Z,12.30
2023-03-23T18:17:38.311Z,12.20
2023-03-23T18:20:08.639Z,12.10
2023-03-23T18:22:35.713Z,12.10
2023-03-23T18:25:04.226Z,12.10
2023-03-23T18:27:31.448Z,12.00
2023-03-23T18:29:58.963Z,11.90
2023-03-23T18:32:27.454Z,11.90
2023-03-23T18:34:55.113Z,11.90
2023-03-23T18:37:21.998Z,11.90
2023-03-23T18:39:48.996Z,11.90
2023-03-23T18:42:16.177Z,12.00
2023-03-23T18:44:43.082Z,12.00
2023-03-23T18:47:09.970Z,12.00
2023-03-23T18:49:36.911Z,11.90
2023-03-23T18:52:04.896Z,12.00
2023-03-23T18:54:38.010Z,12.00
2023-03-23T18:57:04.958Z,12.00
2023-03-23T18:59:34.096Z,11.90
2023-03-23T19:02:01.486Z,11.80
2023-03-23T19:04:31.404Z,11.80
2023-03-23T19:07:01.447Z,11.70
2023-03-23T19:09:30.336Z,11.60
2023-03-23T19:11:57.339Z,11.50
2023-03-23T19:14:24.491Z,11.40
2023-03-23T19:16:52.443Z,11.40
2023-03-23T19:19:20.291Z,11.40
2023-03-23T19:21:47.383Z,11.40
2023-03-23T19:24:15.476Z,11.30
2023-03-23T19:26:46.503Z,11.10
2023-03-23T19:29:26.683Z,11.10
2023-03-23T19:31:57.191Z,11.20
2023-03-23T19:34:27.330Z,11.10
2023-03-23T19:37:03.154Z,11.20
2023-03-23T19:39:33.854Z,11.20
2023-03-23T19:42:00.791Z,11.20
2023-03-23T19:44:28.876Z,11.20
2023-03-23T19:46:56.598Z,11.20
2023-03-23T19:49:25.047Z,11.20
2023-03-23T19:52:07.222Z,11.20
2023-03-23T19:54:38.431Z,11.20
2023-03-23T19:57:05.795Z,11.30
2023-03-23T19:59:32.723Z,11.20
2023-03-23T20:01:59.630Z,11.20
2023-03-23T20:04:27.144Z,11.20
2023-03-23T20:06:57.077Z,11.20
2023-03-23T20:09:25.288Z,11.30
2023-03-23T20:11:53.569Z,11.30
2023-03-23T20:14:24.397Z,11.30
2023-03-23T20:16:52.815Z,11.30
2023-03-23T20:19:19.914Z,11.30
2023-03-23T20:21:47.081Z,11.30
2023-03-23T20:24:14.262Z,11.30
2023-03-23T20:26:43.606Z,11.30
2023-03-23T20:29:11.090Z,11.30
2023-03-23T20:31:41.837Z,11.30
2023-03-23T20:34:14.329Z,11.30
2023-03-23T20:36:46.940Z,11.40
2023-03-23T20:39:21.047Z,11.40
2023-03-23T20:41:50.848Z,11.40
2023-03-23T20:44:23.018Z,11.40
2023-03-23T20:46:53.349Z,11.40
2023-03-23T20:49:21.935Z,11.50
2023-03-23T20:51:50.589Z,11.60
2023-03-23T20:54:20.164Z,11.60
2023-03-23T20:56:48.570Z,11.70
2023-03-23T20:59:16.880Z,11.70
2023-03-23T21:01:44.626Z,11.70
2023-03-23T21:04:18.921Z,11.70
2023-03-23T21:06:48.938Z,11.70
2023-03-23T21:09:17.202Z,11.70
2023-03-23T21:11:45.774Z,11.70
2023-03-23T21:14:13.741Z,11.70
2023-03-23T21:16:42.049Z,11.80
2023-03-23T21:19:09.710Z,11.80
2023-03-23T21:21:36.927Z,11.70
2023-03-23T21:24:04.063Z,11.70
2023-03-23T21:26:31.248Z,11.70
2023-03-23T21:29:01.546Z,11.70
2023-03-23T21:31:31.459Z,11.70
2023-03-23T21:33:59.420Z,11.60
2023-03-23T21:36:27.255Z,11.50
2023-03-23T21:38:56.114Z,11.40
2023-03-23T21:41:24.262Z,11.30
2023-03-23T21:43:51.896Z,11.30
2023-03-23T21:46:19.053Z,11.30
2023-03-23T21:48:52.444Z,11.30
2023-03-23T21:51:27.261Z,11.40
2023-03-23T21:53:56.184Z,11.50
2023-03-23T21:56:27.799Z,11.50
2023-03-23T21:58:57.101Z,11.60
2023-03-23T22:01:24.717Z,11.60
2023-03-23T22:03:51.745Z,11.70
2023-03-23T22:06:26.583Z,11.70
2023-03-23T22:08:55.295Z,11.80
2023-03-23T22:11:31.062Z,11.80
2023-03-23T22:13:59.405Z,11.90
2023-03-23T22:16:26.896Z,11.90
2023-03-23T22:18:57.501Z,11.90
2023-03-23T22:21:27.096Z,12.00
2023-03-23T22:23:59.602Z,12.00
2023-03-23T22:26:27.972Z,12.00
2023-03-23T22:28:57.352Z,12.00
2023-03-23T22:31:29.301Z,12.10
2023-03-23T22:33:57.770Z,12.10
2023-03-23T22:36:29.819Z,12.20
2023-03-23T22:38:57.193Z,12.20
2023-03-23T22:41:33.824Z,12.30
2023-03-23T22:44:00.863Z,12.30
2023-03-23T22:46:28.093Z,12.30
2023-03-23T22:48:55.605Z,12.30
2023-03-23T22:51:23.882Z,12.30
2023-03-23T22:53:50.870Z,12.30
2023-03-23T22:56:19.132Z,12.20
2023-03-23T22:58:46.398Z,12.10
2023-03-23T23:01:21.367Z,12.10
2023-03-23T23:03:49.593Z,12.10
2023-03-23T23:06:19.669Z,12.10
2023-03-23T23:08:48.366Z,12.20
2023-03-23T23:11:18.169Z,12.20
2023-03-23T23:13:45.466Z,12.20
2023-03-23T23:16:16.987Z,12.10
2023-03-23T23:18:47.540Z,12.10
2023-03-23T23:21:23.157Z,12.00
2023-03-23T23:23:51.565Z,11.90
2023-03-23T23:26:19.901Z,11.90
2023-03-23T23:28:48.378Z,11.90
2023-03-23T23:31:33.468Z,11.90
2023-03-23T23:34:03.832Z,11.90
2023-03-23T23:36:32.258Z,11.80
2023-03-23T23:39:03.353Z,11.80
2023-03-23T23:41:30.639Z,11.70
2023-03-23T23:43:58.366Z,11.70
2023-03-23T23:46:26.736Z,11.60
2023-03-23T23:48:53.732Z,11.60
2023-03-23T23:51:20.780Z,11.60
2023-03-23T23:53:53.126Z,11.50
2023-03-23T23:56:22.154Z,11.50
2023-03-23T23:58:49.283Z,11.50
